Time;durP1;ratioP1;P1;durP2;ratioP2;P2;SDS_P1;SDS_P2;PMS_P1;PMS_P2;Temp;Humidity;BMP_temperature;BMP_pressure;BME280_temperature;BME280_humidity;BME280_pressure;Samples;Min_cycle;Max_cycle;Signal;HPM_P1;HPM_P2
2021/06/22 00:01:06;;;;;;;28.83;7.95;;;;;;;22.01;58.84;99715.06;4961934;28;20056;-65
2021/06/22 00:03:34;;;;;;;27.08;7.72;;;;;;;21.95;58.79;99720.09;4961712;28;20091;-64
2021/06/22 00:06:00;;;;;;;26.27;8.07;;;;;;;21.94;58.80;99715.69;4962501;28;20143;-66
2021/06/22 00:08:26;;;;;;;20.73;6.50;;;;;;;21.82;58.78;99710.94;4961198;28;20129;-65
2021/06/22 00:10:52;;;;;;;22.90;7.80;;;;;;;21.87;58.75;99718.25;4961904;28;20055;-64
2021/06/22 00:13:19;;;;;;;19.88;7.20;;;;;;;21.85;58.92;99720.56;4962401;28;20059;-65
2021/06/22 00:15:45;;;;;;;19.43;7.30;;;;;;;21.83;58.79;99722.91;4961886;28;20039;-65
2021/06/22 00:18:11;;;;;;;20.63;6.65;;;;;;;21.82;58.49;99722.09;4961407;28;20051;-65
2021/06/22 00:20:39;;;;;;;26.40;7.43;;;;;;;21.83;58.57;99720.91;4963811;28;20054;-65
2021/06/22 00:23:05;;;;;;;20.85;6.90;;;;;;;21.81;58.70;99714.91;4945872;28;20051;-65
2021/06/22 00:25:31;;;;;;;23.23;7.30;;;;;;;21.78;58.75;99719.22;4962118;28;20042;-65
2021/06/22 00:27:57;;;;;;;26.80;9.47;;;;;;;21.76;59.15;99720.72;4958470;28;20046;-64
2021/06/22 00:30:24;;;;;;;34.08;10.43;;;;;;;21.68;59.59;99726.06;4961044;28;20522;-64
2021/06/22 00:32:50;;;;;;;;;;;;;;;21.65;59.65;99726.78;4962533;28;20504;-63
2021/06/22 00:35:17;;;;;;;30.37;8.20;;;;;;;21.59;59.51;99732.91;4959802;28;20060;-64
2021/06/22 00:37:45;;;;;;;31.52;9.27;;;;;;;21.58;59.69;99737.66;4960906;28;20517;-63
2021/06/22 00:40:14;;;;;;;33.17;9.15;;;;;;;21.54;59.81;99732.00;4962109;28;20057;-64
2021/06/22 00:42:41;;;;;;;27.27;8.18;;;;;;;21.57;60.08;99729.66;4959939;28;20043;-64
2021/06/22 00:45:08;;;;;;;33.42;8.23;;;;;;;21.52;60.14;99727.94;4943081;28;20056;-65
2021/06/22 00:47:34;;;;;;;22.80;7.85;;;;;;;21.52;59.83;99725.97;4959871;28;20142;-65
2021/06/22 00:50:04;;;;;;;30.10;8.38;;;;;;;21.55;60.18;99735.59;4961319;28;20066;-64
2021/06/22 00:52:32;;;;;;;25.98;7.85;;;;;;;21.56;59.90;99737.22;4961301;28;20051;-64
2021/06/22 00:55:00;;;;;;;29.40;7.43;;;;;;;21.58;59.89;99743.22;4959778;28;20518;-64
2021/06/22 00:57:27;;;;;;;23.02;6.32;;;;;;;21.62;59.46;99737.75;4957078;28;20066;-65
2021/06/22 00:59:54;;;;;;;23.55;6.25;;;;;;;21.64;59.17;99739.03;4958797;28;20721;-64
2021/06/22 01:02:21;;;;;;;19.08;5.72;;;;;;;21.68;58.79;99734.41;4961067;28;20098;-64
2021/06/22 01:04:48;;;;;;;23.75;6.10;;;;;;;21.71;59.15;99746.81;4960623;28;20463;-63
2021/06/22 01:07:26;;;;;;;24.65;5.90;;;;;;;21.69;58.54;99738.00;4945638;28;20069;-64
2021/06/22 01:09:54;;;;;;;20.13;5.75;;;;;;;21.70;58.76;99730.47;4961075;28;20051;-64
2021/06/22 01:12:22;;;;;;;20.80;5.90;;;;;;;21.71;58.82;99732.09;4945510;28;20055;-64
2021/06/22 01:14:48;;;;;;;25.70;6.63;;;;;;;21.68;58.98;99728.84;4959674;28;20050;-63
2021/06/22 01:17:14;;;;;;;19.58;5.88;;;;;;;21.72;58.53;99736.50;4960840;28;20062;-64
2021/06/22 01:19:43;;;;;;;12.85;5.10;;;;;;;21.73;58.39;99738.94;4961050;28;20526;-64
2021/06/22 01:22:11;;;;;;;20.95;5.80;;;;;;;21.76;58.05;99735.44;4960327;28;20051;-63
2021/06/22 01:24:44;;;;;;;21.55;5.55;;;;;;;21.81;58.09;99737.16;4961835;28;20054;-64
2021/06/22 01:27:13;;;;;;;31.27;6.32;;;;;;;21.84;57.95;99741.22;4973738;28;20537;-64
2021/06/22 01:29:39;;;;;;;20.58;6.60;;;;;;;21.81;57.71;99735.19;4961125;28;20055;-65
2021/06/22 01:32:08;;;;;;;20.20;6.35;;;;;;;21.83;58.00;99734.84;4960270;28;20134;-64
2021/06/22 01:34:40;;;;;;;17.83;5.50;;;;;;;21.81;57.96;99735.19;4961934;28;20105;-64
2021/06/22 01:37:09;;;;;;;16.88;6.30;;;;;;;21.89;57.80;99735.41;4960235;28;20058;-64
2021/06/22 01:39:43;;;;;;;24.60;6.45;;;;;;;21.93;58.08;99744.66;4944972;28;20504;-64
2021/06/22 01:42:10;;;;;;;19.95;6.45;;;;;;;21.95;57.86;99743.16;4961432;28;20157;-65
2021/06/22 01:44:46;;;;;;;18.10;5.70;;;;;;;22.04;57.49;99744.97;4959329;28;20050;-66
2021/06/22 01:47:13;;;;;;;23.75;5.78;;;;;;;22.06;57.49;99743.44;4959511;28;20047;-65
2021/06/22 01:49:40;;;;;;;21.42;5.85;;;;;;;22.10;57.37;99741.59;4961741;28;20047;-66
2021/06/22 01:52:07;;;;;;;25.85;6.82;;;;;;;22.14;57.30;99749.22;4959358;28;20069;-64
2021/06/22 01:54:35;;;;;;;25.73;6.45;;;;;;;22.18;57.25;99748.16;4958708;28;20059;-65
2021/06/22 01:57:05;;;;;;;26.95;6.78;;;;;;;22.19;57.09;99751.75;4958058;28;20347;-64
2021/06/22 01:59:38;;;;;;;19.77;5.82;;;;;;;22.19;56.93;99758.13;4961252;28;20066;-64
2021/06/22 02:02:28;;;;;;;23.25;5.13;;;;;;;22.21;56.98;99757.75;4958834;28;20499;-64
2021/06/22 02:05:07;;;;;;;24.83;6.60;;;;;;;22.26;57.22;99759.50;4959241;28;20051;-64
2021/06/22 02:07:33;;;;;;;;;;;;;;;22.32;56.91;99755.28;4959883;28;20053;-64
2021/06/22 02:10:12;;;;;;;22.83;5.95;;;;;;;22.38;56.63;99757.44;4961972;28;20399;-65
2021/06/22 02:13:08;;;;;;;33.85;7.45;;;;;;;22.48;56.61;99761.75;4960375;28;20047;-65
2021/06/22 02:15:36;;;;;;;33.97;7.00;;;;;;;22.54;56.50;99758.69;4974449;28;20499;-65
2021/06/22 02:18:05;;;;;;;28.98;7.53;;;;;;;22.52;56.54;99762.63;4960392;28;20054;-66
2021/06/22 02:20:34;;;;;;;35.70;10.23;;;;;;;22.55;57.10;99765.88;4975410;28;20504;-64
2021/06/22 02:23:00;;;;;;;37.28;9.75;;;;;;;22.57;56.74;99760.75;4960217;28;20543;-64
2021/06/22 02:25:27;;;;;;;;;;;;;;;22.60;56.64;99765.59;4943325;28;20150;-63
2021/06/22 02:28:00;;;;;;;40.42;9.32;;;;;;;22.67;56.49;99769.38;4959674;28;20422;-64
2021/06/22 02:30:28;;;;;;;35.13;9.98;;;;;;;22.73;56.39;99767.16;4959280;28;20070;-65
2021/06/22 02:32:54;;;;;;;37.72;11.25;;;;;;;22.83;56.11;99774.16;4973982;28;20043;-63
2021/06/22 02:35:24;;;;;;;49.65;13.48;;;;;;;22.93;55.81;99778.38;4958241;28;20055;-64
2021/06/22 02:37:55;;;;;;;47.47;12.93;;;;;;;22.99;55.81;99773.34;4959521;28;20047;-64
2021/06/22 02:40:24;;;;;;;38.85;12.43;;;;;;;23.07;55.46;99780.75;4963450;28;20075;-64
2021/06/22 02:42:55;;;;;;;41.78;10.88;;;;;;;23.09;55.19;99776.41;4947446;28;20051;-64
2021/06/22 02:45:22;;;;;;;31.85;9.88;;;;;;;23.14;55.16;99783.69;4977488;28;20400;-64
2021/06/22 02:47:50;;;;;;;39.25;10.80;;;;;;;23.20;55.20;99781.44;4946960;28;20586;-64
2021/06/22 02:50:19;;;;;;;31.48;9.57;;;;;;;23.24;54.65;99782.31;4978692;28;20043;-65
2021/06/22 02:52:46;;;;;;;32.15;9.80;;;;;;;23.24;54.85;99765.59;4961577;28;20520;-64
2021/06/22 02:55:19;;;;;;;34.83;10.45;;;;;;;23.32;54.69;99778.59;4962890;28;20070;-66
2021/06/22 02:57:57;;;;;;;44.15;10.13;;;;;;;23.35;54.74;99788.22;4961524;28;20175;-64
2021/06/22 03:00:26;;;;;;;35.88;10.63;;;;;;;23.36;54.58;99779.47;4962485;28;20052;-65
2021/06/22 03:02:56;;;;;;;30.98;9.77;;;;;;;23.41;54.54;99783.13;4947218;28;20059;-65
2021/06/22 03:05:23;;;;;;;63.97;13.90;;;;;;;23.45;54.41;99784.84;4977330;28;20046;-65
2021/06/22 03:07:49;;;;;;;64.22;17.80;;;;;;;23.48;55.22;99780.53;4963340;28;20047;-64
2021/06/22 03:10:18;;;;;;;70.68;17.17;;;;;;;23.49;55.34;99784.94;4961614;28;20074;-65
2021/06/22 03:12:44;;;;;;;66.50;16.42;;;;;;;23.51;55.66;99775.03;4964243;28;20499;-64
2021/06/22 03:15:22;;;;;;;64.10;16.13;;;;;;;23.53;55.74;99771.88;4961086;28;20598;-64
2021/06/22 03:17:50;;;;;;;57.95;15.77;;;;;;;23.52;56.16;99778.63;4960888;28;20051;-64
2021/06/22 03:20:19;;;;;;;58.75;14.35;;;;;;;23.53;56.50;99777.44;4963651;28;20523;-65
2021/06/22 03:22:46;;;;;;;52.22;13.88;;;;;;;23.52;56.56;99781.41;4962427;28;20046;-64
2021/06/22 03:25:13;;;;;;;45.13;14.10;;;;;;;23.55;56.53;99772.31;4976232;28;20047;-64
2021/06/22 03:27:47;;;;;;;57.72;15.18;;;;;;;23.58;57.04;99781.94;4960809;28;20059;-64
2021/06/22 03:30:34;;;;;;;49.60;14.10;;;;;;;23.57;57.23;99771.97;4962381;28;20063;-65
2021/06/22 03:33:00;;;;;;;88.07;17.10;;;;;;;23.61;57.62;99776.44;4946420;28;20063;-65
2021/06/22 03:35:29;;;;;;;68.18;14.07;;;;;;;23.67;57.80;99778.94;4962000;28;20380;-65
2021/06/22 03:37:56;;;;;;;75.15;14.88;;;;;;;23.61;57.90;99758.88;4962747;28;20051;-64
2021/06/22 03:40:22;;;;;;;63.45;14.18;;;;;;;23.75;57.91;99766.78;4961975;28;20158;-66
2021/06/22 03:42:49;;;;;;;46.17;11.25;;;;;;;23.81;56.85;99775.69;4962311;28;20054;-66
2021/06/22 03:45:16;;;;;;;43.13;11.10;;;;;;;23.85;56.48;99777.34;4959331;28;20075;-64
2021/06/22 03:47:47;;;;;;;53.17;13.40;;;;;;;23.90;56.68;99782.66;4960329;28;20051;-64
2021/06/22 03:50:14;;;;;;;42.00;12.10;;;;;;;23.97;56.43;99783.97;4961609;28;20129;-65
2021/06/22 03:52:42;;;;;;;44.05;13.48;;;;;;;23.93;56.54;99781.94;4961650;28;20302;-64
2021/06/22 03:55:27;;;;;;;42.13;14.10;;;;;;;24.01;56.54;99780.09;4961715;28;20341;-64
2021/06/22 03:58:07;;;;;;;62.58;14.93;;;;;;;24.04;56.25;99779.38;4961360;28;20381;-64
2021/06/22 04:00:38;;;;;;;83.53;18.60;;;;;;;24.07;56.63;99778.63;4962196;28;20066;-65
2021/06/22 04:03:13;;;;;;;92.03;18.08;;;;;;;24.13;56.90;99781.16;4962844;28;20055;-64
2021/06/22 04:05:45;;;;;;;54.33;17.70;;;;;;;24.18;57.03;99789.22;4944136;28;20531;-64
2021/06/22 04:08:31;;;;;;;42.92;14.68;;;;;;;24.25;57.19;99788.56;4945369;28;20093;-64
2021/06/22 04:11:05;;;;;;;47.42;12.55;;;;;;;24.30;57.08;99791.88;4953756;28;20289;-65
2021/06/22 04:13:33;;;;;;;38.35;10.20;;;;;;;24.36;56.88;99793.19;4961712;28;20068;-64
2021/06/22 04:16:01;;;;;;;49.75;10.27;;;;;;;24.38;56.75;99787.25;4958534;28;20049;-64
2021/06/22 04:18:29;;;;;;;33.78;9.18;;;;;;;24.43;57.07;99789.72;4958568;28;20134;-64
2021/06/22 04:21:00;;;;;;;44.10;9.35;;;;;;;24.46;56.76;99783.38;4961799;28;20047;-65
2021/06/22 04:23:34;;;;;;;40.67;8.45;;;;;;;24.50;56.94;99789.06;4929230;28;20071;-66
2021/06/22 04:26:01;;;;;;;39.58;8.45;;;;;;;24.55;56.46;99787.94;4977752;28;20463;-65
2021/06/22 04:28:27;;;;;;;41.58;9.35;;;;;;;24.61;56.38;99786.44;4960187;28;20042;-64
2021/06/22 04:30:53;;;;;;;31.23;8.13;;;;;;;24.65;56.15;99790.13;4962544;28;20141;-65
2021/06/22 04:33:20;;;;;;;33.20;7.70;;;;;;;24.71;55.77;99787.81;4962138;28;20063;-65
2021/06/22 04:35:46;;;;;;;32.80;9.85;;;;;;;24.75;55.05;99789.50;4943931;28;20333;-64
2021/06/22 04:38:12;;;;;;;28.10;7.95;;;;;;;24.80;54.28;99791.22;4960758;28;20138;-65
2021/06/22 04:40:40;;;;;;;26.08;6.90;;;;;;;24.79;54.11;99800.78;4961796;28;20054;-65
2021/06/22 04:43:07;;;;;;;25.20;6.25;;;;;;;24.87;53.78;99796.13;4962177;28;20142;-65
2021/06/22 04:45:33;;;;;;;25.38;5.78;;;;;;;24.97;53.54;99795.50;4959645;28;20051;-65
2021/06/22 04:48:02;;;;;;;27.90;7.55;;;;;;;25.01;53.34;99796.38;4958681;28;20138;-64
2021/06/22 04:50:28;;;;;;;31.25;7.28;;;;;;;25.09;53.32;99793.69;4962043;28;20042;-64
2021/06/22 04:52:54;;;;;;;45.10;11.47;;;;;;;25.12;53.45;99790.13;4960796;28;20062;-64
2021/06/22 04:55:25;;;;;;;29.17;9.10;;;;;;;25.15;53.45;99795.00;4961235;28;20314;-65
2021/06/22 04:57:57;;;;;;;42.97;9.45;;;;;;;25.19;53.64;99799.47;4956831;28;20045;-64
2021/06/22 05:00:24;;;;;;;31.63;9.15;;;;;;;25.27;53.62;99797.56;4959784;28;20039;-64
2021/06/22 05:02:50;;;;;;;50.13;11.52;;;;;;;25.34;53.50;99796.88;4961482;28;20137;-65
2021/06/22 05:05:16;;;;;;;32.83;10.52;;;;;;;25.37;53.22;99800.94;4960565;28;20046;-65
2021/06/22 05:07:42;;;;;;;38.90;9.53;;;;;;;25.44;53.32;99801.84;4958485;28;20140;-65
2021/06/22 05:10:10;;;;;;;35.95;9.23;;;;;;;25.51;53.17;99803.16;4957552;28;20050;-65
2021/06/22 05:12:36;;;;;;;27.83;8.55;;;;;;;25.55;53.22;99799.25;4960961;28;20138;-65
2021/06/22 05:15:05;;;;;;;26.98;8.50;;;;;;;25.54;52.58;99800.44;4959363;28;20050;-64
2021/06/22 05:17:31;;;;;;;25.23;7.93;;;;;;;25.62;53.13;99799.34;4959207;28;20114;-63
2021/06/22 05:19:57;;;;;;;36.65;8.38;;;;;;;25.70;53.04;99791.88;4958243;28;20071;-63
2021/06/22 05:22:23;;;;;;;45.75;8.05;;;;;;;25.78;52.72;99801.19;4958266;28;20054;-64
2021/06/22 05:24:49;;;;;;;33.05;8.30;;;;;;;25.87;52.41;99801.69;4944001;28;20061;-64
2021/06/22 05:27:15;;;;;;;33.10;8.03;;;;;;;25.96;52.21;99800.59;4957655;28;20066;-64
2021/06/22 05:29:42;;;;;;;31.63;7.93;;;;;;;26.03;52.64;99803.47;4958364;28;20049;-65
2021/06/22 05:32:11;;;;;;;27.77;7.90;;;;;;;26.06;52.37;99797.13;4959793;28;20051;-65
2021/06/22 05:34:37;;;;;;;35.00;7.85;;;;;;;26.14;52.49;99800.81;4958078;28;20137;-64
2021/06/22 05:37:03;;;;;;;23.13;7.33;;;;;;;26.21;52.31;99795.34;4957581;28;20053;-64
2021/06/22 05:39:29;;;;;;;35.35;7.43;;;;;;;26.28;52.04;99795.41;4957891;28;20042;-64
2021/06/22 05:41:56;;;;;;;41.57;7.90;;;;;;;26.31;51.68;99793.84;4958151;28;20146;-63
2021/06/22 05:44:22;;;;;;;33.95;7.95;;;;;;;26.44;51.46;99799.97;4957874;28;20146;-65
2021/06/22 05:46:48;;;;;;;26.63;7.97;;;;;;;26.54;50.88;99798.50;4957888;28;20047;-65
2021/06/22 05:49:16;;;;;;;37.90;8.20;;;;;;;26.57;50.21;99801.34;4955156;28;20054;-64
2021/06/22 05:51:42;;;;;;;37.35;8.43;;;;;;;26.59;50.30;99798.94;4956103;28;20519;-65
2021/06/22 05:54:08;;;;;;;36.30;8.37;;;;;;;26.67;50.50;99799.81;4958949;28;20526;-64
2021/06/22 05:56:35;;;;;;;27.27;7.57;;;;;;;26.75;49.87;99795.09;4958168;28;20146;-64
2021/06/22 05:59:01;;;;;;;29.27;7.50;;;;;;;26.84;49.23;99797.59;4954703;28;20151;-64
2021/06/22 06:01:27;;;;;;;31.70;6.38;;;;;;;26.90;47.64;99796.88;4958218;28;20081;-65
2021/06/22 06:03:53;;;;;;;44.85;7.00;;;;;;;26.99;47.71;99790.94;4927119;28;20487;-65
2021/06/22 06:06:20;;;;;;;33.35;7.40;;;;;;;27.06;47.09;99784.59;4958048;28;20047;-64
2021/06/22 06:08:46;;;;;;;24.77;6.63;;;;;;;27.15;46.79;99784.25;4956724;28;20051;-64
2021/06/22 06:11:13;;;;;;;33.95;7.05;;;;;;;27.22;46.98;99786.31;4958205;28;20054;-65
2021/06/22 06:13:39;;;;;;;31.05;7.97;;;;;;;27.27;47.58;99788.78;4960251;28;20086;-63
2021/06/22 06:16:06;;;;;;;34.25;10.82;;;;;;;27.29;48.10;99784.34;4965076;28;20141;-65
2021/06/22 06:18:32;;;;;;;;;;;;;;;27.35;48.14;99784.81;4963051;28;20050;-65
2021/06/22 06:21:01;;;;;;;57.25;16.13;;;;;;;27.42;47.49;99782.06;4963401;28;19926;-64
2021/06/22 06:23:37;;;;;;;58.78;13.45;;;;;;;27.48;47.02;99784.50;4964514;28;20050;-64
2021/06/22 06:26:03;;;;;;;51.42;12.13;;;;;;;27.55;47.18;99785.38;4962340;28;20050;-68
2021/06/22 06:28:33;;;;;;;38.00;10.87;;;;;;;27.65;47.45;99791.47;4960583;28;20071;-70
2021/06/22 06:30:59;;;;;;;41.47;11.32;;;;;;;27.65;47.27;99786.63;4959511;28;21444;-67
2021/06/22 06:33:25;;;;;;;48.33;11.97;;;;;;;27.73;47.60;99781.84;4973536;28;20426;-68
2021/06/22 06:35:53;;;;;;;38.88;10.32;;;;;;;27.75;47.35;99779.47;4957818;28;20897;-69
2021/06/22 06:38:19;;;;;;;29.95;8.65;;;;;;;27.82;47.42;99785.13;4960332;28;20527;-67
2021/06/22 06:40:47;;;;;;;28.50;6.53;;;;;;;27.88;47.07;99779.94;4961428;28;20051;-68
2021/06/22 06:43:13;;;;;;;27.85;5.43;;;;;;;27.95;47.13;99790.41;4960608;28;20063;-68
2021/06/22 06:45:40;;;;;;;21.40;5.30;;;;;;;27.96;46.45;99784.38;4962138;28;20206;-68
2021/06/22 06:48:07;;;;;;;18.25;5.70;;;;;;;27.94;46.28;99777.53;4957003;28;20314;-68
2021/06/22 06:50:34;;;;;;;21.90;5.30;;;;;;;28.00;45.78;99782.38;4960281;28;20047;-66
2021/06/22 06:53:00;;;;;;;22.48;5.53;;;;;;;28.06;45.68;99782.03;4960385;28;20055;-67
2021/06/22 06:55:31;;;;;;;23.10;5.73;;;;;;;28.12;46.42;99781.25;4964544;28;20190;-66
2021/06/22 06:58:02;;;;;;;23.02;5.32;;;;;;;28.15;45.46;99780.44;4959638;28;20121;-67
2021/06/22 07:00:31;;;;;;;25.58;5.57;;;;;;;28.24;45.62;99779.28;4958730;28;20396;-67
2021/06/22 07:02:58;;;;;;;24.35;5.20;;;;;;;28.27;45.62;99784.94;4961668;28;20047;-66
2021/06/22 07:05:24;;;;;;;20.38;5.03;;;;;;;28.27;44.94;99770.88;4962033;28;20047;-66
2021/06/22 07:07:51;;;;;;;30.33;6.45;;;;;;;28.31;44.88;99791.34;4960469;28;20059;-67
2021/06/22 07:10:17;;;;;;;20.57;5.13;;;;;;;28.34;45.27;99772.13;4958941;28;20468;-66
2021/06/22 07:12:44;;;;;;;17.08;4.90;;;;;;;28.37;45.05;99774.91;4958772;28;20081;-67
2021/06/22 07:15:13;;;;;;;20.25;5.20;;;;;;;28.45;44.42;99784.97;4959001;28;20043;-66
2021/06/22 07:17:39;;;;;;;17.48;4.97;;;;;;;28.51;44.24;99778.97;4959506;28;20058;-67
2021/06/22 07:20:07;;;;;;;20.33;4.78;;;;;;;28.55;44.44;99780.59;4957278;28;20121;-66
2021/06/22 07:22:35;;;;;;;19.35;5.53;;;;;;;28.63;44.12;99780.59;4958986;28;20047;-67
2021/06/22 07:25:01;;;;;;;;;;;;;;;28.66;43.97;99774.19;4961632;28;20051;-65
2021/06/22 07:27:28;;;;;;;34.17;5.28;;;;;;;28.68;44.26;99777.41;4959891;28;19937;-66
2021/06/22 07:29:54;;;;;;;26.03;4.80;;;;;;;28.71;43.86;99782.22;4961421;28;20070;-67
2021/06/22 07:32:22;;;;;;;22.38;4.85;;;;;;;28.72;44.14;99773.38;4941695;28;20126;-71
2021/06/22 07:34:48;;;;;;;24.10;5.50;;;;;;;28.80;44.91;99777.03;4958502;28;20046;-69
2021/06/22 07:37:14;;;;;;;20.98;5.35;;;;;;;28.83;44.68;99766.97;4958213;28;20055;-69
2021/06/22 07:39:40;;;;;;;19.90;5.13;;;;;;;28.83;44.37;99770.59;4959694;28;20071;-68
2021/06/22 07:42:07;;;;;;;19.40;5.22;;;;;;;28.83;44.34;99766.97;4957274;28;20154;-68
2021/06/22 07:44:33;;;;;;;13.63;5.00;;;;;;;28.91;44.15;99773.41;4960267;28;20146;-66
2021/06/22 07:47:00;;;;;;;24.48;4.85;;;;;;;28.97;44.04;99783.88;4959111;28;20046;-64
2021/06/22 07:49:27;;;;;;;17.77;5.38;;;;;;;28.90;44.06;99778.25;4958834;28;20053;-68
2021/06/22 07:51:53;;;;;;;16.95;4.55;;;;;;;28.96;44.18;99787.88;4959129;28;20424;-66
2021/06/22 07:54:19;;;;;;;13.18;4.50;;;;;;;29.04;43.80;99785.88;4956776;28;20055;-68
2021/06/22 07:56:46;;;;;;;28.25;5.30;;;;;;;29.13;44.17;99791.09;4960447;28;20047;-69
2021/06/22 07:59:12;;;;;;;21.33;4.85;;;;;;;29.19;43.61;99788.69;4960366;28;20039;-68
2021/06/22 08:01:38;;;;;;;22.05;4.72;;;;;;;29.21;43.28;99791.91;4959964;28;20419;-70
2021/06/22 08:04:04;;;;;;;36.00;5.38;;;;;;;29.26;43.10;99785.84;4959114;28;20106;-67
2021/06/22 08:06:32;;;;;;;22.92;4.93;;;;;;;29.24;42.40;99791.91;4962104;28;20130;-68
2021/06/22 08:08:58;;;;;;;20.65;4.90;;;;;;;29.18;42.55;99770.19;4961740;28;20078;-69
2021/06/22 08:11:24;;;;;;;26.13;5.32;;;;;;;29.33;43.00;99799.94;4962449;28;20535;-66
2021/06/22 08:13:50;;;;;;;19.50;4.88;;;;;;;29.34;42.77;99793.09;4963214;28;20053;-66
2021/06/22 08:16:17;;;;;;;17.45;4.03;;;;;;;29.36;42.19;99796.31;4963056;28;20073;-65
2021/06/22 08:18:43;;;;;;;18.02;4.28;;;;;;;29.45;41.88;99795.91;4962351;28;22138;-66
2021/06/22 08:21:09;;;;;;;24.02;4.97;;;;;;;29.49;40.97;99788.25;4963302;28;20047;-66
2021/06/22 08:23:37;;;;;;;19.45;5.00;;;;;;;29.50;41.02;99787.03;4962873;28;20057;-66
2021/06/22 08:26:03;;;;;;;24.85;4.78;;;;;;;29.55;41.48;99792.28;4962598;28;20050;-63
2021/06/22 08:28:29;;;;;;;37.40;5.95;;;;;;;29.50;41.97;99797.53;4962410;28;20330;-65
2021/06/22 08:30:55;;;;;;;17.88;5.05;;;;;;;29.58;41.50;99791.47;4963153;28;20051;-64
2021/06/22 08:33:21;;;;;;;21.40;5.07;;;;;;;29.67;41.61;99793.06;4962804;28;20050;-62
2021/06/22 08:35:48;;;;;;;20.02;4.80;;;;;;;29.72;42.53;99789.84;4960568;28;20087;-62
2021/06/22 08:38:14;;;;;;;;;;;;;;;29.75;42.05;99796.69;4961686;28;20058;-64
2021/06/22 08:40:44;;;;;;;21.35;5.25;;;;;;;29.77;41.20;99795.03;4963054;28;19926;-64
2021/06/22 08:43:12;;;;;;;23.65;5.10;;;;;;;29.81;41.29;99798.63;4962610;28;20051;-64
2021/06/22 08:45:39;;;;;;;30.23;5.55;;;;;;;29.85;41.56;99798.63;4959944;28;20472;-67
2021/06/22 08:48:08;;;;;;;21.63;5.05;;;;;;;29.88;41.53;99794.22;4960013;28;20098;-66
2021/06/22 08:50:35;;;;;;;26.95;5.22;;;;;;;29.78;41.50;99773.31;4945210;28;20149;-65
2021/06/22 08:53:01;;;;;;;;;;;;;;;29.87;41.35;99796.22;4960004;28;20113;-63
2021/06/22 08:55:31;;;;;;;16.20;5.00;;;;;;;29.91;42.00;99793.38;4959445;28;19926;-63
2021/06/22 08:58:01;;;;;;;25.40;5.13;;;;;;;29.92;41.42;99786.53;4962785;28;20057;-68
2021/06/22 09:00:28;;;;;;;33.67;6.13;;;;;;;29.98;40.99;99790.56;4960037;28;20413;-66
2021/06/22 09:03:12;;;;;;;22.52;5.85;;;;;;;30.02;41.25;99787.72;4957042;28;20054;-66
2021/06/22 09:05:39;;;;;;;34.63;7.28;;;;;;;30.06;41.40;99786.50;4959819;28;20459;-69
2021/06/22 09:08:16;;;;;;;23.65;5.32;;;;;;;30.14;40.63;99784.47;4957136;28;20432;-67
2021/06/22 09:10:42;;;;;;;21.08;5.18;;;;;;;30.17;40.52;99771.56;4959939;28;20057;-65
2021/06/22 09:13:16;;;;;;;23.48;4.78;;;;;;;30.22;40.04;99779.59;4956743;28;20522;-65
2021/06/22 09:15:44;;;;;;;26.50;5.40;;;;;;;30.22;39.91;99791.69;4959059;28;20049;-65
2021/06/22 09:18:30;;;;;;;26.35;5.03;;;;;;;30.33;39.65;99780.34;4956327;28;20047;-67
2021/06/22 09:20:58;;;;;;;22.70;5.53;;;;;;;30.33;40.19;99774.72;4960261;28;20093;-66
2021/06/22 09:23:26;;;;;;;27.35;5.18;;;;;;;30.33;39.81;99776.72;4960722;28;20047;-65
2021/06/22 09:25:55;;;;;;;23.60;5.20;;;;;;;30.31;40.45;99774.31;4961619;28;20062;-67
2021/06/22 09:28:25;;;;;;;17.98;4.72;;;;;;;30.31;40.18;99777.16;4959718;28;20050;-65
2021/06/22 09:30:54;;;;;;;32.65;6.75;;;;;;;30.35;39.17;99763.81;4969717;28;20046;-66
2021/06/22 09:33:30;;;;;;;29.70;7.10;;;;;;;30.53;38.94;99769.34;4958891;28;20082;-72
2021/06/22 09:35:59;;;;;;;23.70;6.38;;;;;;;30.59;38.49;99768.91;4960357;28;20050;-70
2021/06/22 09:38:31;;;;;;;30.67;6.10;;;;;;;30.56;37.88;99765.69;4955319;28;20393;-65
2021/06/22 09:41:06;;;;;;;34.03;5.80;;;;;;;30.65;38.01;99767.28;4942504;28;20047;-66
2021/06/22 09:43:41;;;;;;;26.83;5.60;;;;;;;30.61;38.40;99767.28;4957568;28;20134;-63
2021/06/22 09:46:11;;;;;;;41.80;6.68;;;;;;;30.61;38.18;99756.00;4956390;28;20035;-68
2021/06/22 09:48:48;;;;;;;32.10;7.82;;;;;;;30.73;37.76;99759.56;4955380;28;20141;-69
2021/06/22 09:51:15;;;;;;;33.20;6.15;;;;;;;30.70;37.06;99764.03;4956428;28;20074;-69
2021/06/22 09:53:41;;;;;;;46.67;6.45;;;;;;;30.75;37.46;99766.41;4957651;28;20057;-69
2021/06/22 09:56:21;;;;;;;41.00;6.97;;;;;;;30.83;37.26;99759.50;4956289;28;20493;-68
2021/06/22 09:58:49;;;;;;;23.50;5.47;;;;;;;30.89;37.53;99761.88;4957223;28;20051;-69
2021/06/22 10:01:29;;;;;;;22.10;4.57;;;;;;;30.84;37.31;99760.28;4939419;28;20571;-68
2021/06/22 10:03:59;;;;;;;21.17;5.15;;;;;;;30.84;37.80;99758.28;4956250;28;20070;-66
2021/06/22 10:06:33;;;;;;;31.67;4.90;;;;;;;30.92;37.39;99761.03;4955771;28;20098;-67
2021/06/22 10:09:00;;;;;;;31.08;6.38;;;;;;;30.96;37.07;99771.06;4956463;28;20089;-67
2021/06/22 10:11:31;;;;;;;32.22;5.80;;;;;;;31.06;37.07;99762.91;4957817;28;20074;-66
2021/06/22 10:13:59;;;;;;;34.55;6.00;;;;;;;31.10;36.00;99756.03;4940997;28;20199;-66
2021/06/22 10:16:29;;;;;;;39.67;6.03;;;;;;;31.08;35.46;99760.50;4959227;28;20051;-67
2021/06/22 10:18:55;;;;;;;33.55;5.18;;;;;;;31.09;35.31;99764.91;4956145;28;20057;-65
2021/06/22 10:21:21;;;;;;;35.88;5.95;;;;;;;31.06;34.38;99758.09;4957449;28;20102;-66
2021/06/22 10:23:49;;;;;;;27.15;5.75;;;;;;;31.08;34.24;99744.34;4972539;28;20160;-68
2021/06/22 10:26:16;;;;;;;43.08;6.07;;;;;;;31.14;34.60;99753.16;4959398;28;20047;-67
2021/06/22 10:28:43;;;;;;;25.17;6.50;;;;;;;31.19;35.28;99744.25;4958548;28;20042;-66
2021/06/22 10:31:11;;;;;;;33.33;5.90;;;;;;;31.13;35.59;99746.72;4958571;28;20137;-67
2021/06/22 10:33:37;;;;;;;36.60;5.40;;;;;;;31.20;34.88;99742.22;4960304;28;20059;-66
2021/06/22 10:36:05;;;;;;;37.40;6.40;;;;;;;31.25;34.47;99747.44;4958904;28;20051;-66
2021/06/22 10:38:36;;;;;;;27.17;5.65;;;;;;;31.24;34.38;99740.19;4958719;28;20054;-65
2021/06/22 10:41:04;;;;;;;40.30;5.68;;;;;;;31.19;34.41;99741.41;4960857;28;20082;-66
2021/06/22 10:43:34;;;;;;;38.35;5.68;;;;;;;31.24;34.06;99745.84;4959200;28;20130;-66
2021/06/22 10:46:06;;;;;;;34.05;4.63;;;;;;;31.28;34.06;99752.25;4959426;28;20134;-67
2021/06/22 10:48:42;;;;;;;28.40;5.28;;;;;;;31.31;32.87;99747.78;4960096;28;20062;-65
2021/06/22 10:51:28;;;;;;;34.30;4.75;;;;;;;31.41;31.09;99752.53;4958834;28;20043;-67
2021/06/22 10:53:54;;;;;;;26.40;4.68;;;;;;;31.41;31.07;99744.06;4959927;28;20496;-67
2021/06/22 10:56:21;;;;;;;42.25;5.63;;;;;;;31.46;30.71;99743.59;4959249;28;20058;-66
2021/06/22 10:59:15;;;;;;;;;;;;;;;31.48;30.45;99740.38;4960115;28;20186;-66
2021/06/22 11:01:57;;;;;;;38.60;6.32;;;;;;;31.51;30.28;99745.16;4951049;28;19927;-65
2021/06/22 11:04:25;;;;;;;30.13;4.63;;;;;;;31.49;29.98;99744.78;4963187;28;20109;-66
2021/06/22 11:07:24;;;;;;;40.45;5.03;;;;;;;31.41;29.84;99736.38;4963212;28;20528;-64
2021/06/22 11:10:13;;;;;;;41.40;5.38;;;;;;;31.54;29.74;99739.50;4964879;28;20713;-66
2021/06/22 11:12:53;;;;;;;50.47;7.20;;;;;;;31.64;29.88;99734.13;4962865;28;20051;-66
2021/06/22 11:15:19;;;;;;;39.33;5.45;;;;;;;31.68;29.67;99734.88;4964948;28;20059;-64
2021/06/22 11:17:58;;;;;;;;;;;;;;;31.64;30.12;99728.47;4964439;28;20136;-66
2021/06/22 11:20:29;;;;;;;34.63;5.40;;;;;;;31.64;29.79;99729.28;4962538;28;19970;-66
2021/06/22 11:23:14;;;;;;;40.65;5.57;;;;;;;31.66;29.64;99731.66;4963849;28;20055;-65
2021/06/22 11:25:59;;;;;;;30.38;5.40;;;;;;;31.71;29.92;99736.06;4964186;28;20408;-65
2021/06/22 11:28:26;;;;;;;35.10;4.93;;;;;;;31.73;29.67;99728.78;4963717;28;20055;-65
2021/06/22 11:30:57;;;;;;;33.83;6.20;;;;;;;31.77;30.06;99725.91;4964018;28;20047;-65
2021/06/22 11:33:44;;;;;;;38.83;5.43;;;;;;;31.79;30.25;99734.78;4961541;28;20059;-65
2021/06/22 11:36:32;;;;;;;27.63;4.97;;;;;;;31.85;30.48;99730.25;4962154;28;20046;-66